createdAt,value
2018-03-15T00:01:12.145Z,4.20
2018-03-15T00:03:39.648Z,4.20
2018-03-15T00:06:07.125Z,4.20
2018-03-15T00:08:34.631Z,4.10
2018-03-15T00:11:02.882Z,4.10
2018-03-15T00:13:30.374Z,4.10
2018-03-15T00:15:57.852Z,4.10
2018-03-15T00:18:25.342Z,4.10
2018-03-15T00:20:52.834Z,4.00
2018-03-15T00:23:21.457Z,4.00
2018-03-15T00:25:48.954Z,4.00
2018-03-15T00:28:16.436Z,4.00
2018-03-15T00:30:44.681Z,4.10
2018-03-15T00:33:12.174Z,4.10
2018-03-15T00:35:39.974Z,4.10
2018-03-15T00:38:07.474Z,4.10
2018-03-15T00:40:36.005Z,4.30
2018-03-15T00:43:03.769Z,4.20
2018-03-15T00:45:31.534Z,4.20
2018-03-15T00:47:59.009Z,4.30
2018-03-15T00:50:26.502Z,4.20
2018-03-15T00:52:53.976Z,4.20
2018-03-15T00:55:22.217Z,4.10
2018-03-15T00:57:49.948Z,4.10
2018-03-15T01:00:17.426Z,4.10
2018-03-15T01:02:45.018Z,4.10
2018-03-15T01:05:13.269Z,4.10
2018-03-15T01:07:40.775Z,4.00
2018-03-15T01:10:08.270Z,4.10
2018-03-15T01:12:35.767Z,4.10
2018-03-15T01:15:04.026Z,4.10
2018-03-15T01:17:32.297Z,4.10
2018-03-15T01:19:59.793Z,4.10
2018-03-15T01:22:27.286Z,4.10
2018-03-15T01:24:54.864Z,4.10
2018-03-15T01:27:22.453Z,4.10
2018-03-15T01:29:50.697Z,4.20
2018-03-15T01:32:18.328Z,4.10
2018-03-15T01:34:45.809Z,4.10
2018-03-15T01:37:13.293Z,4.10
2018-03-15T01:39:40.863Z,4.10
2018-03-15T01:42:09.112Z,4.00
2018-03-15T01:44:36.609Z,4.00
2018-03-15T01:47:04.085Z,4.10
2018-03-15T01:49:31.610Z,4.00
2018-03-15T01:51:59.880Z,4.10
2018-03-15T01:54:28.122Z,4.10
2018-03-15T01:56:56.366Z,4.10
2018-03-15T01:59:23.838Z,4.10
2018-03-15T02:01:51.313Z,4.10
2018-03-15T02:04:18.817Z,4.10
2018-03-15T02:06:47.053Z,3.90
2018-03-15T02:09:14.544Z,3.90
2018-03-15T02:11:43.065Z,3.90
2018-03-15T02:14:10.541Z,3.90
2018-03-15T02:16:38.029Z,3.80
2018-03-15T02:19:05.501Z,3.80
2018-03-15T02:21:33.769Z,3.80
2018-03-15T02:24:02.130Z,3.80
2018-03-15T02:26:29.610Z,3.80
2018-03-15T02:28:57.878Z,3.90
2018-03-15T02:31:26.118Z,3.90
2018-03-15T02:33:53.647Z,3.90
2018-03-15T02:36:21.211Z,4.00
2018-03-15T02:38:48.730Z,4.00
2018-03-15T02:41:17.011Z,3.90
2018-03-15T02:43:45.252Z,3.90
2018-03-15T02:46:12.746Z,3.80
2018-03-15T02:48:41.264Z,3.90
2018-03-15T02:51:08.740Z,3.90
2018-03-15T02:53:36.230Z,3.90
2018-03-15T02:56:04.478Z,3.90
2018-03-15T02:58:31.983Z,3.90
2018-03-15T03:00:59.463Z,4.00
2018-03-15T03:03:26.937Z,4.00
2018-03-15T03:05:54.431Z,3.90
2018-03-15T03:08:22.681Z,4.00
2018-03-15T03:10:50.170Z,3.90
2018-03-15T03:13:18.417Z,3.80
2018-03-15T03:15:46.487Z,3.80
2018-03-15T03:18:14.474Z,3.80
2018-03-15T03:20:41.945Z,3.90
2018-03-15T03:23:10.203Z,3.90
2018-03-15T03:25:37.677Z,3.90
2018-03-15T03:28:05.933Z,3.90
2018-03-15T03:30:33.423Z,3.80
2018-03-15T03:33:01.666Z,4.10
2018-03-15T03:35:29.541Z,4.00
2018-03-15T03:37:57.926Z,4.00
2018-03-15T03:40:26.198Z,3.90
2018-03-15T03:42:54.445Z,3.90
2018-03-15T03:45:21.925Z,3.90
2018-03-15T03:47:49.417Z,3.80
2018-03-15T03:50:17.204Z,3.90
2018-03-15T03:52:44.701Z,3.90
2018-03-15T03:55:12.177Z,3.90
2018-03-15T03:57:40.412Z,3.90
2018-03-15T04:00:08.157Z,3.90
2018-03-15T04:02:35.633Z,4.00
2018-03-15T04:05:03.129Z,4.00
2018-03-15T04:07:31.382Z,3.80
2018-03-15T04:09:58.857Z,3.70
2018-03-15T04:12:27.118Z,3.60
2018-03-15T04:14:54.842Z,3.60
2018-03-15T04:17:22.338Z,3.50
2018-03-15T04:19:49.820Z,3.70
2018-03-15T04:22:18.061Z,4.00
2018-03-15T04:24:45.545Z,4.00
2018-03-15T04:27:13.785Z,3.80
2018-03-15T04:29:41.273Z,3.80
2018-03-15T04:32:09.517Z,3.80
2018-03-15T04:34:37.017Z,3.80
2018-03-15T04:37:05.274Z,4.00
2018-03-15T04:39:32.749Z,4.00
2018-03-15T04:42:01.013Z,4.00
2018-03-15T04:44:29.254Z,4.10
2018-03-15T04:46:56.749Z,4.00
2018-03-15T04:49:24.993Z,3.90
2018-03-15T04:51:52.469Z,3.90
2018-03-15T04:54:19.953Z,3.80
2018-03-15T04:56:47.439Z,3.80
2018-03-15T04:59:14.953Z,3.80
2018-03-15T05:01:43.202Z,3.90
2018-03-15T05:04:10.694Z,3.90
2018-03-15T05:06:38.938Z,4.00
2018-03-15T05:09:06.414Z,4.00
2018-03-15T05:11:34.675Z,4.00
2018-03-15T05:14:03.226Z,4.00
2018-03-15T05:16:30.725Z,4.00
2018-03-15T05:18:59.704Z,3.90
2018-03-15T05:21:27.246Z,3.90
2018-03-15T05:23:54.737Z,3.90
2018-03-15T05:26:23.041Z,3.90
2018-03-15T05:28:50.544Z,3.80
2018-03-15T05:31:19.546Z,3.80
2018-03-15T05:33:48.235Z,3.90
2018-03-15T05:36:15.725Z,3.90
2018-03-15T05:38:43.969Z,3.80
2018-03-15T05:41:11.461Z,3.80
2018-03-15T05:43:38.938Z,3.90
2018-03-15T05:46:06.419Z,3.90
2018-03-15T05:48:34.021Z,3.90
2018-03-15T05:51:02.257Z,3.90
2018-03-15T05:53:29.753Z,3.90
2018-03-15T05:55:57.996Z,4.50
2018-03-15T05:58:25.480Z,4.50
2018-03-15T06:00:53.745Z,4.30
2018-03-15T06:03:21.225Z,4.30
2018-03-15T06:05:49.496Z,4.70
2018-03-15T06:08:17.738Z,5.00
2018-03-15T06:10:45.237Z,5.00
2018-03-15T06:13:13.481Z,5.30
2018-03-15T06:15:40.967Z,5.30
2018-03-15T06:18:09.245Z,5.40
2018-03-15T06:20:37.486Z,5.70
2018-03-15T06:23:04.982Z,5.70
2018-03-15T06:25:32.457Z,5.60
2018-03-15T06:27:59.938Z,5.40
2018-03-15T06:30:27.429Z,5.40
2018-03-15T06:32:54.913Z,5.30
2018-03-15T06:35:22.409Z,5.20
2018-03-15T06:37:49.914Z,5.30
2018-03-15T06:40:18.166Z,5.60
2018-03-15T06:42:45.662Z,5.60
2018-03-15T06:45:13.146Z,5.80
2018-03-15T06:47:40.664Z,5.70
2018-03-15T06:50:08.905Z,5.70
2018-03-15T06:52:36.378Z,5.60
2018-03-15T06:55:03.869Z,5.70
2018-03-15T06:57:31.350Z,5.90
2018-03-15T06:59:58.846Z,6.00
2018-03-15T07:02:26.329Z,6.30
2018-03-15T07:04:54.852Z,6.30
2018-03-15T07:07:22.362Z,6.30
2018-03-15T07:09:50.602Z,6.40
2018-03-15T07:12:18.100Z,6.40
2018-03-15T07:14:46.338Z,6.70
2018-03-15T07:17:13.825Z,6.60
2018-03-15T07:19:42.090Z,6.90
2018-03-15T07:22:09.573Z,6.90
2018-03-15T07:24:37.078Z,6.80
2018-03-15T07:27:04.561Z,6.90
2018-03-15T07:29:32.068Z,6.90
2018-03-15T07:31:59.561Z,6.90
2018-03-15T07:34:27.037Z,6.90
2018-03-15T07:36:54.606Z,6.90
2018-03-15T07:39:22.873Z,7.00
2018-03-15T07:41:50.445Z,7.00
2018-03-15T07:44:18.694Z,7.20
2018-03-15T07:46:46.201Z,7.20
2018-03-15T07:49:13.681Z,7.60
2018-03-15T07:51:41.154Z,7.30
2018-03-15T07:54:08.748Z,7.00
2018-03-15T07:56:36.985Z,7.20
2018-03-15T07:59:04.520Z,7.20
2018-03-15T08:01:31.993Z,7.20
2018-03-15T08:03:59.465Z,7.20
2018-03-15T08:06:26.966Z,7.30
2018-03-15T08:08:55.201Z,7.50
2018-03-15T08:11:23.472Z,7.60
2018-03-15T08:13:51.210Z,7.60
2018-03-15T08:16:18.682Z,7.90
2018-03-15T08:18:46.181Z,8.10
2018-03-15T08:21:14.424Z,8.10
2018-03-15T08:23:42.841Z,8.20
2018-03-15T08:26:11.078Z,8.40
2018-03-15T08:28:38.554Z,8.40
2018-03-15T08:31:06.824Z,8.40
2018-03-15T08:33:34.305Z,8.40
2018-03-15T08:36:02.570Z,8.50
2018-03-15T08:38:30.814Z,8.40
2018-03-15T08:40:58.289Z,8.40
2018-03-15T08:43:26.555Z,8.50
2018-03-15T08:45:54.141Z,8.50
2018-03-15T08:48:22.405Z,8.50
2018-03-15T08:50:49.885Z,8.50
2018-03-15T08:53:18.122Z,8.60
2018-03-15T08:55:45.614Z,8.60
2018-03-15T08:58:13.865Z,8.40
2018-03-15T09:00:41.366Z,8.40
2018-03-15T09:03:08.842Z,8.40
2018-03-15T09:05:36.605Z,8.30
2018-03-15T09:08:04.125Z,8.30
2018-03-15T09:10:32.367Z,8.70
2018-03-15T09:13:00.629Z,8.70
2018-03-15T09:15:28.235Z,8.70
2018-03-15T09:17:56.477Z,8.80
2018-03-15T09:20:23.969Z,8.90
2018-03-15T09:22:52.221Z,9.20
2018-03-15T09:25:19.722Z,9.20
2018-03-15T09:27:47.242Z,9.20
2018-03-15T09:30:14.678Z,9.50
2018-03-15T09:32:42.178Z,9.60
2018-03-15T09:35:09.726Z,9.80
2018-03-15T09:37:37.998Z,9.90
2018-03-15T09:40:06.254Z,10.20
2018-03-15T09:42:33.740Z,10.20
2018-03-15T09:45:01.250Z,10.20
2018-03-15T09:47:29.637Z,10.30
2018-03-15T09:49:57.145Z,10.70
2018-03-15T09:52:24.686Z,11.00
2018-03-15T09:54:52.946Z,11.10
2018-03-15T09:57:20.520Z,11.10
2018-03-15T09:59:48.801Z,11.00
2018-03-15T10:02:17.094Z,10.80
2018-03-15T10:04:44.577Z,10.80
2018-03-15T10:07:12.067Z,10.80
2018-03-15T10:09:40.369Z,10.80
2018-03-15T10:12:08.617Z,10.70
2018-03-15T10:14:36.452Z,10.60
2018-03-15T10:17:03.938Z,10.40
2018-03-15T10:19:32.939Z,10.50
2018-03-15T10:22:00.437Z,10.50
2018-03-15T10:24:27.929Z,10.30
2018-03-15T10:26:55.441Z,10.40
2018-03-15T10:29:22.933Z,10.30
2018-03-15T10:31:50.424Z,10.20
2018-03-15T10:34:18.701Z,10.10
2018-03-15T10:36:46.286Z,10.10
2018-03-15T10:39:13.809Z,10.10
2018-03-15T10:41:41.397Z,10.50
2018-03-15T10:44:09.656Z,10.20
2018-03-15T10:46:37.161Z,10.20
2018-03-15T10:49:04.649Z,10.50
2018-03-15T10:51:32.158Z,10.70
2018-03-15T10:53:59.650Z,10.50
2018-03-15T10:56:27.165Z,10.30
2018-03-15T10:58:54.673Z,10.30
2018-03-15T11:01:22.165Z,10.60
2018-03-15T11:03:50.434Z,10.40
2018-03-15T11:06:24.714Z,10.40
2018-03-15T11:08:58.219Z,10.40
2018-03-15T11:11:25.701Z,10.60
2018-03-15T11:13:53.977Z,11.00
2018-03-15T11:16:21.469Z,11.00
2018-03-15T11:18:48.962Z,11.20
2018-03-15T11:21:16.479Z,11.40
2018-03-15T11:23:44.810Z,11.80
2018-03-15T11:26:13.013Z,11.50
2018-03-15T11:28:41.268Z,11.70
2018-03-15T11:31:08.757Z,11.70
2018-03-15T11:33:37.036Z,11.60
2018-03-15T11:36:04.593Z,11.60
2018-03-15T11:38:32.903Z,11.50
2018-03-15T11:41:00.390Z,11.40
2018-03-15T11:43:27.875Z,11.10
2018-03-15T11:45:56.142Z,11.60
2018-03-15T11:48:23.717Z,11.60
2018-03-15T11:50:52.101Z,11.70
2018-03-15T11:53:19.590Z,11.60
2018-03-15T11:55:47.085Z,11.90
2018-03-15T11:58:14.593Z,12.30
2018-03-15T12:00:42.089Z,12.20
2018-03-15T12:03:09.590Z,12.60
2018-03-15T12:05:37.082Z,12.40
2018-03-15T12:08:04.849Z,13.00
2018-03-15T12:10:32.364Z,13.00
2018-03-15T12:13:00.618Z,13.10
2018-03-15T12:15:28.893Z,13.30
2018-03-15T12:17:57.207Z,13.30
2018-03-15T12:20:25.445Z,13.40
2018-03-15T12:22:53.701Z,13.60
2018-03-15T12:25:21.209Z,13.60
2018-03-15T12:27:48.729Z,13.60
2018-03-15T12:30:16.210Z,14.20
2018-03-15T12:32:43.694Z,14.10
2018-03-15T12:35:11.190Z,14.60
2018-03-15T12:37:38.660Z,14.30
2018-03-15T12:40:06.245Z,14.20
2018-03-15T12:42:34.573Z,14.20
2018-03-15T12:45:02.782Z,14.20
2018-03-15T12:47:30.371Z,14.20
2018-03-15T12:49:57.866Z,14.40
2018-03-15T12:52:25.380Z,14.50
2018-03-15T12:54:53.622Z,14.70
2018-03-15T12:57:21.125Z,14.70
2018-03-15T12:59:49.382Z,13.50
2018-03-15T13:02:17.634Z,13.30
2018-03-15T13:04:45.126Z,13.20
2018-03-15T13:07:13.438Z,12.80
2018-03-15T13:09:41.201Z,12.80
2018-03-15T13:12:08.719Z,12.70
2018-03-15T13:14:36.962Z,12.80
2018-03-15T13:17:04.458Z,12.80
2018-03-15T13:19:32.707Z,13.00
2018-03-15T13:22:00.187Z,12.90
2018-03-15T13:24:28.461Z,12.90
2018-03-15T13:26:56.722Z,12.70
2018-03-15T13:29:24.222Z,12.70
2018-03-15T13:31:51.702Z,12.70
2018-03-15T13:34:19.237Z,12.60
2018-03-15T13:36:46.714Z,12.80
2018-03-15T13:39:14.257Z,12.50
2018-03-15T13:41:41.736Z,12.70
2018-03-15T13:44:09.214Z,12.70
2018-03-15T13:46:37.462Z,12.70
2018-03-15T13:49:04.958Z,12.70
2018-03-15T13:51:32.459Z,12.50
2018-03-15T13:53:59.957Z,12.30
2018-03-15T13:56:28.955Z,12.40
2018-03-15T13:58:56.429Z,12.40
2018-03-15T14:01:24.685Z,12.40
2018-03-15T14:03:52.925Z,12.40
2018-03-15T14:06:20.689Z,12.40
2018-03-15T14:08:48.195Z,12.30
2018-03-15T14:11:17.187Z,12.30
2018-03-15T14:13:44.661Z,12.30
2018-03-15T14:16:12.906Z,12.40
2018-03-15T14:18:40.426Z,12.40
2018-03-15T14:21:07.907Z,12.50
2018-03-15T14:23:35.649Z,12.40
2018-03-15T14:26:03.126Z,12.40
2018-03-15T14:28:30.598Z,12.40
2018-03-15T14:30:58.090Z,12.40
2018-03-15T14:33:26.333Z,12.50
2018-03-15T14:35:53.830Z,12.50
2018-03-15T14:38:21.368Z,12.50
2018-03-15T14:40:49.857Z,12.40
2018-03-15T14:43:18.097Z,12.40
2018-03-15T14:45:45.573Z,12.30
2018-03-15T14:48:13.103Z,12.30
2018-03-15T14:50:40.549Z,12.20
2018-03-15T14:53:08.045Z,12.20
2018-03-15T14:55:35.521Z,12.10
2018-03-15T14:58:03.769Z,12.10
2018-03-15T15:00:31.341Z,12.10
2018-03-15T15:02:59.586Z,12.00
2018-03-15T15:05:27.081Z,12.00
2018-03-15T15:07:55.322Z,12.20
2018-03-15T15:10:22.793Z,12.10
2018-03-15T15:12:51.073Z,12.20
2018-03-15T15:15:18.581Z,12.10
2018-03-15T15:17:46.077Z,12.10
2018-03-15T15:20:14.380Z,11.90
2018-03-15T15:22:42.626Z,11.90
2018-03-15T15:25:10.114Z,11.90
2018-03-15T15:27:38.364Z,11.70
2018-03-15T15:30:06.193Z,11.70
2018-03-15T15:32:33.957Z,11.70
2018-03-15T15:35:01.457Z,11.70
2018-03-15T15:37:29.031Z,11.60
2018-03-15T15:39:57.286Z,11.60
2018-03-15T15:42:24.784Z,11.60
2018-03-15T15:44:52.258Z,11.70
2018-03-15T15:47:19.777Z,11.60
2018-03-15T15:49:48.022Z,11.60
2018-03-15T15:52:15.520Z,11.60
2018-03-15T15:54:43.785Z,11.60
2018-03-15T15:57:12.041Z,11.50
2018-03-15T15:59:39.517Z,11.50
2018-03-15T16:02:07.785Z,11.50
2018-03-15T16:04:35.257Z,11.40
2018-03-15T16:07:03.518Z,11.40
2018-03-15T16:09:31.004Z,11.40
2018-03-15T16:11:58.584Z,11.40
2018-03-15T16:14:26.065Z,11.30
2018-03-15T16:16:53.564Z,11.30
2018-03-15T16:19:21.805Z,11.20
2018-03-15T16:21:49.285Z,11.20
2018-03-15T16:24:17.553Z,11.20
2018-03-15T16:26:45.798Z,11.20
2018-03-15T16:29:13.513Z,11.20
2018-03-15T16:31:41.753Z,11.20
2018-03-15T16:34:09.254Z,11.20
2018-03-15T16:36:37.493Z,11.20
2018-03-15T16:39:05.757Z,11.20
2018-03-15T16:41:33.253Z,11.20
2018-03-15T16:44:01.499Z,11.20
2018-03-15T16:46:29.989Z,11.20
2018-03-15T16:48:58.993Z,11.20
2018-03-15T16:51:27.229Z,11.10
2018-03-15T16:53:54.731Z,11.10
2018-03-15T16:56:23.014Z,11.00
2018-03-15T16:58:51.285Z,10.90
2018-03-15T17:01:19.532Z,10.80
2018-03-15T17:03:47.237Z,10.80
2018-03-15T17:06:14.733Z,10.80
2018-03-15T17:08:42.214Z,10.80
2018-03-15T17:11:09.722Z,10.80
2018-03-15T17:13:37.213Z,10.80
2018-03-15T17:16:04.701Z,10.80
2018-03-15T17:18:32.970Z,10.90
2018-03-15T17:21:01.957Z,10.90
2018-03-15T17:23:30.230Z,10.90
2018-03-15T17:25:57.702Z,10.90
2018-03-15T17:28:25.946Z,11.00
2018-03-15T17:30:53.433Z,11.00
2018-03-15T17:33:21.677Z,11.00
2018-03-15T17:35:49.173Z,11.00
2018-03-15T17:38:17.415Z,11.00
2018-03-15T17:40:44.894Z,11.00
2018-03-15T17:43:12.390Z,11.00
2018-03-15T17:45:39.918Z,11.00
2018-03-15T17:48:08.216Z,11.00
2018-03-15T17:50:35.693Z,11.00
2018-03-15T17:53:03.165Z,11.00
2018-03-15T17:55:30.711Z,11.00
2018-03-15T17:57:58.913Z,11.00
2018-03-15T18:00:26.415Z,11.00
2018-03-15T18:02:53.957Z,11.00
2018-03-15T18:05:22.240Z,11.00
2018-03-15T18:07:50.506Z,10.90
2018-03-15T18:10:18.750Z,10.80
2018-03-15T18:12:46.246Z,10.80
2018-03-15T18:15:16.329Z,10.80
2018-03-15T18:17:43.825Z,10.70
2018-03-15T18:20:12.088Z,10.80
2018-03-15T18:22:40.342Z,10.80
2018-03-15T18:25:07.846Z,10.70
2018-03-15T18:27:35.329Z,10.70
2018-03-15T18:30:02.806Z,10.70
2018-03-15T18:32:30.301Z,10.70
2018-03-15T18:34:58.545Z,10.70
2018-03-15T18:37:26.038Z,10.60
2018-03-15T18:39:54.281Z,10.60
2018-03-15T18:42:21.756Z,10.60
2018-03-15T18:44:50.014Z,10.50
2018-03-15T18:47:17.485Z,10.50
2018-03-15T18:49:44.990Z,10.50
2018-03-15T18:52:12.469Z,10.40
2018-03-15T18:54:39.950Z,10.40
2018-03-15T18:57:08.953Z,10.20
2018-03-15T18:59:36.430Z,10.20
2018-03-15T19:02:04.689Z,10.10
2018-03-15T19:04:32.943Z,10.10
2018-03-15T19:07:00.430Z,10.10
2018-03-15T19:09:28.693Z,10.00
2018-03-15T19:11:56.193Z,10.00
2018-03-15T19:14:23.696Z,10.00
2018-03-15T19:16:51.169Z,9.80
2018-03-15T19:19:19.405Z,9.70
2018-03-15T19:21:46.894Z,9.70
2018-03-15T19:24:14.467Z,9.60
2018-03-15T19:26:42.776Z,9.50
2018-03-15T19:29:10.298Z,9.50
2018-03-15T19:31:38.553Z,9.30
2018-03-15T19:34:06.140Z,9.30
2018-03-15T19:36:34.423Z,9.00
2018-03-15T19:39:01.888Z,9.00
2018-03-15T19:41:29.462Z,9.00
2018-03-15T19:43:56.965Z,8.90
2018-03-15T19:46:24.437Z,8.90
2018-03-15T19:48:52.677Z,8.80
2018-03-15T19:51:20.162Z,8.80
2018-03-15T19:53:47.637Z,8.80
2018-03-15T19:56:15.902Z,8.70
2018-03-15T19:58:44.150Z,8.70
2018-03-15T20:01:11.635Z,8.70
2018-03-15T20:03:39.896Z,8.60
2018-03-15T20:06:07.374Z,8.50
2018-03-15T20:08:34.882Z,8.60
2018-03-15T20:11:02.357Z,8.50
2018-03-15T20:13:29.845Z,8.50
2018-03-15T20:15:58.122Z,8.40
2018-03-15T20:18:26.362Z,8.30
2018-03-15T20:20:53.879Z,8.20
2018-03-15T20:23:26.998Z,8.30
2018-03-15T20:25:54.497Z,8.20
2018-03-15T20:28:28.460Z,8.30
2018-03-15T20:30:55.956Z,8.20
2018-03-15T20:33:29.940Z,8.20
2018-03-15T20:35:57.442Z,8.20
2018-03-15T20:38:25.710Z,8.10
2018-03-15T20:40:59.586Z,8.10
2018-03-15T20:43:27.162Z,8.10
2018-03-15T20:46:01.173Z,8.40
2018-03-15T20:48:34.241Z,8.30
2018-03-15T20:51:01.834Z,8.60
2018-03-15T20:53:30.122Z,8.80
2018-03-15T20:55:58.634Z,8.80
2018-03-15T20:58:26.124Z,8.90
2018-03-15T21:00:53.605Z,8.90
2018-03-15T21:03:21.887Z,9.00
2018-03-15T21:05:49.361Z,9.00
2018-03-15T21:08:16.834Z,9.10
2018-03-15T21:10:44.352Z,9.10
2018-03-15T21:13:12.573Z,9.20
2018-03-15T21:15:40.077Z,9.10
2018-03-15T21:18:07.550Z,9.20
2018-03-15T21:20:35.791Z,9.30
2018-03-15T21:23:03.285Z,9.30
2018-03-15T21:25:30.762Z,9.30
2018-03-15T21:27:58.258Z,9.30
2018-03-15T21:30:25.748Z,9.20
2018-03-15T21:32:54.010Z,9.20
2018-03-15T21:35:23.009Z,9.10
2018-03-15T21:37:51.246Z,9.10
2018-03-15T21:40:18.993Z,9.20
2018-03-15T21:42:46.469Z,9.10
2018-03-15T21:45:13.945Z,9.10
2018-03-15T21:47:41.534Z,9.10
2018-03-15T21:50:09.775Z,9.10
2018-03-15T21:52:37.505Z,9.10
2018-03-15T21:55:05.027Z,9.10
2018-03-15T21:57:33.269Z,9.00
2018-03-15T22:00:00.757Z,9.00
2018-03-15T22:02:28.998Z,8.90
2018-03-15T22:04:56.537Z,8.90
2018-03-15T22:07:23.990Z,8.90
2018-03-15T22:09:51.466Z,8.90
2018-03-15T22:12:18.957Z,8.80
2018-03-15T22:14:47.194Z,8.80
2018-03-15T22:17:14.693Z,8.80
2018-03-15T22:19:42.929Z,8.80
2018-03-15T22:22:10.435Z,8.70
2018-03-15T22:24:38.950Z,8.70
2018-03-15T22:27:06.425Z,8.70
2018-03-15T22:29:33.917Z,8.70
2018-03-15T22:32:02.202Z,8.60
2018-03-15T22:34:30.445Z,8.60
2018-03-15T22:36:58.030Z,8.50
2018-03-15T22:39:26.273Z,8.50
2018-03-15T22:41:53.773Z,8.50
2018-03-15T22:44:22.013Z,8.40
2018-03-15T22:46:49.503Z,8.40
2018-03-15T22:49:17.761Z,8.40
2018-03-15T22:51:45.269Z,8.40
2018-03-15T22:54:12.785Z,8.40
2018-03-15T22:56:41.025Z,8.30
2018-03-15T22:59:08.501Z,8.30
2018-03-15T23:01:35.991Z,8.30
2018-03-15T23:04:03.477Z,8.30
2018-03-15T23:06:30.974Z,8.20
2018-03-15T23:08:58.456Z,8.20
2018-03-15T23:11:25.938Z,8.20
2018-03-15T23:13:53.654Z,8.20
2018-03-15T23:16:21.526Z,8.20
2018-03-15T23:18:49.816Z,8.10
2018-03-15T23:21:18.437Z,8.10
2018-03-15T23:23:45.977Z,8.10
2018-03-15T23:26:13.506Z,8.00
2018-03-15T23:28:40.973Z,7.90
2018-03-15T23:31:09.237Z,7.80
2018-03-15T23:33:37.481Z,7.70
2018-03-15T23:36:04.962Z,7.70
2018-03-15T23:38:32.533Z,7.70
2018-03-15T23:41:00.810Z,7.60
2018-03-15T23:43:29.337Z,7.70
2018-03-15T23:45:56.810Z,7.60
2018-03-15T23:48:24.285Z,7.50
2018-03-15T23:50:51.782Z,7.40
2018-03-15T23:53:19.258Z,7.30
2018-03-15T23:55:46.780Z,7.40
2018-03-15T23:58:15.023Z,7.30
